createdAt,value
2019-01-09T00:00:04.855Z,46.18
2019-01-09T00:02:31.718Z,41.30
2019-01-09T00:05:03.434Z,51.13
2019-01-09T00:07:31.157Z,40.23
2019-01-09T00:09:58.028Z,39.67
2019-01-09T00:12:25.926Z,45.85
2019-01-09T00:14:53.100Z,41.48
2019-01-09T00:17:20.233Z,40.43
2019-01-09T00:19:49.348Z,36.17
2019-01-09T00:22:15.820Z,37.90
2019-01-09T00:24:42.709Z,39.03
2019-01-09T00:27:09.976Z,38.45
2019-01-09T00:29:38.831Z,42.48
2019-01-09T00:32:06.875Z,29.92
2019-01-09T00:34:37.793Z,38.00
2019-01-09T00:37:02.344Z,30.72
2019-01-09T00:39:31.655Z,27.90
2019-01-09T00:41:59.706Z,33.35
2019-01-09T00:44:27.021Z,33.42
2019-01-09T00:46:56.772Z,34.05
2019-01-09T00:49:23.834Z,35.55
2019-01-09T00:51:58.154Z,35.28
2019-01-09T00:54:24.814Z,33.98
2019-01-09T00:56:51.650Z,38.38
2019-01-09T00:59:18.450Z,30.82
2019-01-09T01:01:45.407Z,33.08
2019-01-09T01:04:12.583Z,34.20
2019-01-09T01:06:40.673Z,32.65
2019-01-09T01:09:07.747Z,27.20
2019-01-09T01:11:34.771Z,30.55
2019-01-09T01:14:01.778Z,26.40
2019-01-09T01:16:28.956Z,27.37
2019-01-09T01:18:56.296Z,25.75
2019-01-09T01:21:23.690Z,25.55
2019-01-09T01:23:50.477Z,26.07
2019-01-09T01:26:17.544Z,24.82
2019-01-09T01:28:44.196Z,23.83
2019-01-09T01:31:11.271Z,26.17
2019-01-09T01:33:38.027Z,21.57
2019-01-09T01:36:05.023Z,22.62
2019-01-09T01:38:31.868Z,18.05
2019-01-09T01:40:58.515Z,22.07
2019-01-09T01:43:25.251Z,20.77
2019-01-09T01:45:51.890Z,16.40
2019-01-09T01:48:18.631Z,14.98
2019-01-09T01:50:45.136Z,18.50
2019-01-09T01:53:11.777Z,16.50
2019-01-09T01:55:38.292Z,16.73
2019-01-09T01:58:04.912Z,19.77
2019-01-09T02:00:31.494Z,18.52
2019-01-09T02:02:58.061Z,21.42
2019-01-09T02:05:24.932Z,16.77
2019-01-09T02:07:51.784Z,18.32
2019-01-09T02:10:18.346Z,19.57
2019-01-09T02:12:45.064Z,20.37
2019-01-09T02:15:11.642Z,18.37
2019-01-09T02:17:38.315Z,20.05
2019-01-09T02:20:07.762Z,17.85
2019-01-09T02:22:34.511Z,22.00
2019-01-09T02:25:01.171Z,19.40
2019-01-09T02:27:28.334Z,19.90
2019-01-09T02:29:55.221Z,17.67
2019-01-09T02:32:22.485Z,16.85
2019-01-09T02:34:49.447Z,18.05
2019-01-09T02:37:16.592Z,23.18
2019-01-09T02:39:47.792Z,37.55
2019-01-09T02:42:14.946Z,27.40
2019-01-09T02:44:41.817Z,35.23
2019-01-09T02:47:09.106Z,26.30
2019-01-09T02:49:35.980Z,27.48
2019-01-09T02:52:02.796Z,29.50
2019-01-09T02:54:29.590Z,35.43
2019-01-09T02:56:56.888Z,24.85
2019-01-09T02:59:23.526Z,31.20
2019-01-09T03:01:51.711Z,27.50
2019-01-09T03:04:18.476Z,30.37
2019-01-09T03:06:45.432Z,31.95
2019-01-09T03:09:12.319Z,34.35
2019-01-09T03:11:39.277Z,28.15
2019-01-09T03:14:08.356Z,31.30
2019-01-09T03:16:37.125Z,37.35
2019-01-09T03:19:03.854Z,27.73
2019-01-09T03:21:30.931Z,25.60
2019-01-09T03:23:58.301Z,33.83
2019-01-09T03:26:25.058Z,30.72
2019-01-09T03:28:55.419Z,32.23
2019-01-09T03:31:22.995Z,28.83
2019-01-09T03:33:50.157Z,27.75
2019-01-09T03:36:18.260Z,35.78
2019-01-09T03:38:45.234Z,28.12
2019-01-09T03:41:12.191Z,25.50
2019-01-09T03:43:39.545Z,35.95
2019-01-09T03:46:06.537Z,26.27
2019-01-09T03:48:33.942Z,25.97
2019-01-09T03:51:01.082Z,32.78
2019-01-09T03:53:40.050Z,31.57
2019-01-09T03:56:06.978Z,27.07
2019-01-09T03:58:34.155Z,23.07
2019-01-09T04:01:01.096Z,26.73
2019-01-09T04:03:35.866Z,27.25
2019-01-09T04:06:02.516Z,29.75
2019-01-09T04:08:29.693Z,26.85
2019-01-09T04:10:56.764Z,29.67
2019-01-09T04:13:23.730Z,35.38
2019-01-09T04:15:50.905Z,22.65
2019-01-09T04:18:17.974Z,35.55
2019-01-09T04:20:44.931Z,30.40
2019-01-09T04:23:11.997Z,29.30
2019-01-09T04:25:40.635Z,38.25
2019-01-09T04:28:07.485Z,29.18
2019-01-09T04:30:34.338Z,32.67
2019-01-09T04:33:02.459Z,31.07
2019-01-09T04:35:29.295Z,22.60
2019-01-09T04:40:30.345Z,27.95
2019-01-09T04:42:58.680Z,31.93
2019-01-09T04:45:25.693Z,23.87
2019-01-09T04:47:53.023Z,26.55
2019-01-09T04:50:33.907Z,23.85
2019-01-09T04:53:01.083Z,26.30
2019-01-09T04:55:30.797Z,25.45
2019-01-09T04:57:57.869Z,21.73
2019-01-09T05:00:24.544Z,19.27
2019-01-09T05:02:51.814Z,25.35
2019-01-09T05:05:21.240Z,20.75
2019-01-09T05:07:48.935Z,25.80
2019-01-09T05:10:15.770Z,24.12
2019-01-09T05:12:43.016Z,24.92
2019-01-09T05:15:15.955Z,27.52
2019-01-09T05:17:42.915Z,27.25
2019-01-09T05:20:09.975Z,26.68
2019-01-09T05:22:36.855Z,28.25
2019-01-09T05:25:04.118Z,39.35
2019-01-09T05:27:31.192Z,27.32
2019-01-09T05:29:58.175Z,22.15
2019-01-09T05:32:25.024Z,29.77
2019-01-09T05:34:52.394Z,32.28
2019-01-09T05:37:34.302Z,30.80
2019-01-09T05:40:03.952Z,30.85
2019-01-09T05:42:31.091Z,31.02
2019-01-09T05:44:58.036Z,30.05
2019-01-09T05:47:24.835Z,31.50
2019-01-09T05:49:52.004Z,31.20
2019-01-09T05:52:18.753Z,26.70
2019-01-09T05:54:46.146Z,21.75
2019-01-09T05:57:12.894Z,23.98
2019-01-09T05:59:40.067Z,23.15
2019-01-09T06:02:07.154Z,19.55
2019-01-09T06:04:34.102Z,26.52
2019-01-09T06:07:01.080Z,20.50
2019-01-09T06:09:30.051Z,30.37
2019-01-09T06:11:58.535Z,22.67
2019-01-09T06:14:39.683Z,28.40
2019-01-09T06:17:08.782Z,28.12
2019-01-09T06:19:36.173Z,28.02
2019-01-09T06:22:04.915Z,26.33
2019-01-09T06:24:31.990Z,27.00
2019-01-09T06:27:00.850Z,28.55
2019-01-09T06:29:28.066Z,27.93
2019-01-09T06:31:54.981Z,28.85
2019-01-09T06:34:22.151Z,28.90
2019-01-09T06:36:49.035Z,40.83
2019-01-09T06:39:25.085Z,37.25
2019-01-09T06:41:52.072Z,36.83
2019-01-09T06:44:19.239Z,31.70
2019-01-09T06:46:46.311Z,30.50
2019-01-09T06:49:13.774Z,40.17
2019-01-09T06:51:46.417Z,28.05
2019-01-09T06:57:03.392Z,34.48
2019-01-09T07:02:16.468Z,46.60
2019-01-09T07:10:00.964Z,36.98
2019-01-09T07:12:30.549Z,41.45
2019-01-09T07:14:57.597Z,32.35
2019-01-09T07:17:24.463Z,35.40
2019-01-09T07:19:51.630Z,36.65
2019-01-09T07:22:18.507Z,41.25
2019-01-09T07:27:38.834Z,38.13
2019-01-09T07:30:05.982Z,40.65
2019-01-09T07:32:32.949Z,45.88
2019-01-09T07:34:59.916Z,51.50
2019-01-09T07:37:29.291Z,45.63
2019-01-09T07:40:00.503Z,44.75
2019-01-09T07:42:27.155Z,63.50
2019-01-09T07:44:54.545Z,50.40
2019-01-09T07:47:21.509Z,58.05
2019-01-09T07:49:48.271Z,42.45
2019-01-09T07:52:14.773Z,43.50
2019-01-09T07:54:41.539Z,45.45
2019-01-09T07:57:08.121Z,41.42
2019-01-09T07:59:34.832Z,48.63
2019-01-09T08:02:01.404Z,37.80
2019-01-09T08:04:27.913Z,44.95
2019-01-09T08:06:54.456Z,37.23
2019-01-09T08:09:21.067Z,31.05
2019-01-09T08:11:47.536Z,43.35
2019-01-09T08:14:14.262Z,43.13
2019-01-09T08:16:40.812Z,33.25
2019-01-09T08:19:07.471Z,35.78
2019-01-09T08:21:34.130Z,56.70
2019-01-09T08:24:00.719Z,42.45
2019-01-09T08:26:27.214Z,50.52
2019-01-09T08:28:53.755Z,64.05
2019-01-09T08:31:20.286Z,185.63
2019-01-09T08:33:46.872Z,163.05
2019-01-09T08:36:13.550Z,181.25
2019-01-09T08:38:40.090Z,76.37
2019-01-09T08:41:06.750Z,39.78
2019-01-09T08:43:33.433Z,46.48
2019-01-09T08:46:02.375Z,54.45
2019-01-09T08:48:28.936Z,58.98
2019-01-09T08:50:55.860Z,62.58
2019-01-09T08:53:22.664Z,52.62
2019-01-09T08:55:49.542Z,45.90
2019-01-09T08:58:16.095Z,54.77
2019-01-09T09:00:43.169Z,43.13
2019-01-09T09:03:10.042Z,46.68
2019-01-09T09:05:36.998Z,54.23
2019-01-09T09:08:11.950Z,41.58
2019-01-09T09:10:32.388Z,57.60
2019-01-09T09:12:59.421Z,48.58
2019-01-09T09:15:26.703Z,46.48
2019-01-09T09:18:08.487Z,37.90
2019-01-09T09:20:37.336Z,40.60
2019-01-09T09:23:04.078Z,45.98
2019-01-09T09:25:31.033Z,41.30
2019-01-09T09:27:58.011Z,35.90
2019-01-09T09:30:25.072Z,37.58
2019-01-09T09:32:51.734Z,34.53
2019-01-09T09:35:18.878Z,43.05
2019-01-09T09:37:46.628Z,34.53
2019-01-09T09:40:13.636Z,42.90
2019-01-09T09:42:40.320Z,38.13
2019-01-09T09:45:07.176Z,38.95
2019-01-09T09:47:33.950Z,38.63
2019-01-09T09:50:00.607Z,45.90
2019-01-09T09:52:27.287Z,43.48
2019-01-09T09:54:54.440Z,44.03
2019-01-09T09:57:20.994Z,41.58
2019-01-09T09:59:48.310Z,49.65
2019-01-09T10:02:15.181Z,37.58
2019-01-09T10:04:45.161Z,40.88
2019-01-09T10:07:11.941Z,33.38
2019-01-09T10:09:38.820Z,34.10
2019-01-09T10:12:05.460Z,33.30
2019-01-09T10:14:32.177Z,35.38
2019-01-09T10:16:58.974Z,31.02
2019-01-09T10:19:25.726Z,26.80
2019-01-09T10:21:52.609Z,39.50
2019-01-09T10:24:19.360Z,41.75
2019-01-09T10:26:46.450Z,29.10
2019-01-09T10:29:13.108Z,27.00
2019-01-09T10:31:40.276Z,41.90
2019-01-09T10:34:07.240Z,36.53
2019-01-09T10:36:34.097Z,39.80
2019-01-09T10:39:00.754Z,36.83
2019-01-09T10:41:27.582Z,39.00
2019-01-09T10:43:54.472Z,43.98
2019-01-09T10:46:21.564Z,44.85
2019-01-09T10:48:50.265Z,40.75
2019-01-09T10:51:17.025Z,38.98
2019-01-09T10:53:43.899Z,34.88
2019-01-09T10:56:10.646Z,33.85
2019-01-09T10:58:37.213Z,37.17
2019-01-09T11:01:04.086Z,32.50
2019-01-09T11:03:30.722Z,22.98
2019-01-09T11:05:57.403Z,30.32
2019-01-09T11:08:24.179Z,27.52
2019-01-09T11:10:52.819Z,24.63
2019-01-09T11:13:19.215Z,28.60
2019-01-09T11:15:46.294Z,24.95
2019-01-09T11:18:13.041Z,20.37
2019-01-09T11:20:41.280Z,24.87
2019-01-09T11:23:08.095Z,20.10
2019-01-09T11:25:35.094Z,21.62
2019-01-09T11:28:01.855Z,22.35
2019-01-09T11:30:28.714Z,22.42
2019-01-09T11:32:55.481Z,23.90
2019-01-09T11:35:22.537Z,27.27
2019-01-09T11:37:49.487Z,19.67
2019-01-09T11:40:16.278Z,32.35
2019-01-09T11:42:43.340Z,29.12
2019-01-09T11:45:10.141Z,24.52
2019-01-09T11:47:36.766Z,25.35
2019-01-09T11:50:03.291Z,29.23
2019-01-09T11:52:29.976Z,28.27
2019-01-09T11:54:56.999Z,28.95
2019-01-09T11:57:23.697Z,23.02
2019-01-09T11:59:50.344Z,23.00
2019-01-09T12:02:22.055Z,23.00
2019-01-09T12:04:45.750Z,22.60
2019-01-09T12:07:12.849Z,24.57
2019-01-09T12:09:39.472Z,17.12
2019-01-09T12:12:06.141Z,23.60
2019-01-09T12:14:32.800Z,20.90
2019-01-09T12:16:59.530Z,23.05
2019-01-09T12:19:26.045Z,22.93
2019-01-09T12:21:52.619Z,21.05
2019-01-09T12:24:19.480Z,24.35
2019-01-09T12:26:46.497Z,20.05
2019-01-09T12:29:13.660Z,19.37
2019-01-09T12:31:40.922Z,23.73
2019-01-09T12:34:07.583Z,19.50
2019-01-09T12:36:34.500Z,18.10
2019-01-09T12:39:03.107Z,19.55
2019-01-09T12:41:29.939Z,14.15
2019-01-09T12:43:56.603Z,23.32
2019-01-09T12:46:23.538Z,14.28
2019-01-09T12:48:50.320Z,11.60
2019-01-09T12:51:17.305Z,15.95
2019-01-09T12:53:44.049Z,13.75
2019-01-09T12:56:10.724Z,15.63
2019-01-09T12:58:37.484Z,12.03
2019-01-09T13:01:05.406Z,15.13
2019-01-09T13:03:32.127Z,16.67
2019-01-09T13:05:58.900Z,20.82
2019-01-09T13:08:25.668Z,15.13
2019-01-09T13:10:53.745Z,17.80
2019-01-09T13:13:20.587Z,19.52
2019-01-09T13:15:47.461Z,21.80
2019-01-09T13:18:14.136Z,19.30
2019-01-09T13:20:40.902Z,25.23
2019-01-09T13:23:09.663Z,25.05
2019-01-09T13:25:36.162Z,19.12
2019-01-09T13:28:03.022Z,17.32
2019-01-09T13:30:29.703Z,22.22
2019-01-09T13:32:56.342Z,16.00
2019-01-09T13:35:23.115Z,16.20
2019-01-09T13:37:49.719Z,22.82
2019-01-09T13:40:16.262Z,17.30
2019-01-09T13:42:43.081Z,21.30
2019-01-09T13:45:09.679Z,20.75
2019-01-09T13:47:36.580Z,22.02
2019-01-09T13:50:03.278Z,19.75
2019-01-09T13:52:30.158Z,19.45
2019-01-09T13:54:56.801Z,19.07
2019-01-09T13:57:24.165Z,23.83
2019-01-09T13:59:50.858Z,22.32
2019-01-09T14:02:17.498Z,15.55
2019-01-09T14:04:44.262Z,16.87
2019-01-09T14:07:10.978Z,16.62
2019-01-09T14:09:39.582Z,18.48
2019-01-09T14:12:06.058Z,13.93
2019-01-09T14:14:32.738Z,17.57
2019-01-09T14:16:59.458Z,13.22
2019-01-09T14:19:25.963Z,19.67
2019-01-09T14:21:52.943Z,57.10
2019-01-09T14:24:19.684Z,41.48
2019-01-09T14:26:46.388Z,50.80
2019-01-09T14:29:13.020Z,51.85
2019-01-09T14:31:39.840Z,58.23
2019-01-09T14:34:06.538Z,56.70
2019-01-09T14:36:33.417Z,57.73
2019-01-09T14:38:59.980Z,29.95
2019-01-09T14:41:26.725Z,39.85
2019-01-09T14:43:53.390Z,31.73
2019-01-09T14:46:20.263Z,23.75
2019-01-09T14:48:47.122Z,20.20
2019-01-09T14:51:13.801Z,18.65
2019-01-09T14:53:40.641Z,28.98
2019-01-09T14:56:07.699Z,22.85
2019-01-09T14:58:34.602Z,19.05
2019-01-09T15:01:03.321Z,20.43
2019-01-09T15:03:30.245Z,30.85
2019-01-09T15:05:56.855Z,37.40
2019-01-09T15:08:23.990Z,36.40
2019-01-09T15:10:53.810Z,42.35
2019-01-09T15:13:20.670Z,53.63
2019-01-09T15:15:47.429Z,43.95
2019-01-09T15:18:14.409Z,45.85
2019-01-09T15:20:40.957Z,45.10
2019-01-09T15:23:07.837Z,37.60
2019-01-09T15:25:34.892Z,40.38
2019-01-09T15:28:01.411Z,53.52
2019-01-09T15:30:28.191Z,39.25
2019-01-09T15:32:54.989Z,34.85
2019-01-09T15:35:21.640Z,23.77
2019-01-09T15:37:48.182Z,25.68
2019-01-09T15:40:14.861Z,19.57
2019-01-09T15:42:41.630Z,23.18
2019-01-09T15:45:08.341Z,18.50
2019-01-09T15:47:35.040Z,20.92
2019-01-09T15:50:01.980Z,14.55
2019-01-09T15:52:28.782Z,23.30
2019-01-09T15:54:55.742Z,19.00
2019-01-09T15:57:22.706Z,34.55
2019-01-09T15:59:49.473Z,26.15
2019-01-09T16:02:16.261Z,39.92
2019-01-09T16:04:43.000Z,40.60
2019-01-09T16:07:10.199Z,36.45
2019-01-09T16:09:37.023Z,36.95
2019-01-09T16:12:03.691Z,25.80
2019-01-09T16:14:30.346Z,22.98
2019-01-09T16:16:57.317Z,25.08
2019-01-09T16:19:24.081Z,24.23
2019-01-09T16:21:51.038Z,25.85
2019-01-09T16:24:18.117Z,25.17
2019-01-09T16:26:44.877Z,23.42
2019-01-09T16:29:11.538Z,86.22
2019-01-09T16:31:38.395Z,105.03
2019-01-09T16:34:05.165Z,85.97
2019-01-09T16:36:31.963Z,86.40
2019-01-09T16:38:58.798Z,62.53
2019-01-09T16:41:25.737Z,75.28
2019-01-09T16:43:52.547Z,89.87
2019-01-09T16:46:19.259Z,88.12
2019-01-09T16:48:46.056Z,71.07
2019-01-09T16:51:12.918Z,68.37
2019-01-09T16:53:39.764Z,56.05
2019-01-09T16:56:08.410Z,101.47
2019-01-09T16:58:34.872Z,85.22
2019-01-09T17:01:02.222Z,91.05
2019-01-09T17:03:29.105Z,84.22
2019-01-09T17:05:56.044Z,40.17
2019-01-09T17:08:22.840Z,27.00
2019-01-09T17:10:49.680Z,18.98
2019-01-09T17:13:16.637Z,30.20
2019-01-09T17:15:43.916Z,30.77
2019-01-09T17:18:10.761Z,31.00
2019-01-09T17:20:37.539Z,44.15
2019-01-09T17:23:04.399Z,28.80
2019-01-09T17:25:31.276Z,29.40
2019-01-09T17:27:59.582Z,26.33
2019-01-09T17:30:26.737Z,26.57
2019-01-09T17:32:53.691Z,36.08
2019-01-09T17:35:23.677Z,35.73
2019-01-09T17:37:50.512Z,41.53
2019-01-09T17:40:17.173Z,32.73
2019-01-09T17:42:44.037Z,32.85
2019-01-09T17:45:10.894Z,30.40
2019-01-09T17:47:37.868Z,27.80
2019-01-09T17:50:04.716Z,33.23
2019-01-09T17:52:31.582Z,22.70
2019-01-09T17:54:58.463Z,21.33
2019-01-09T17:57:32.186Z,25.92
2019-01-09T17:59:59.047Z,20.08
2019-01-09T18:02:26.015Z,19.95
2019-01-09T18:04:53.278Z,26.70
2019-01-09T18:07:20.003Z,22.05
2019-01-09T18:09:47.112Z,20.27
2019-01-09T18:12:14.080Z,23.90
2019-01-09T18:14:41.143Z,25.30
2019-01-09T18:17:07.944Z,23.83
2019-01-09T18:19:34.975Z,19.73
2019-01-09T18:22:02.160Z,24.60
2019-01-09T18:24:29.526Z,27.32
2019-01-09T18:26:58.039Z,22.00
2019-01-09T18:29:25.084Z,23.42
2019-01-09T18:31:51.767Z,20.00
2019-01-09T18:34:18.698Z,23.42
2019-01-09T18:36:45.587Z,22.93
2019-01-09T18:39:12.545Z,24.27
2019-01-09T18:41:39.300Z,22.80
2019-01-09T18:44:06.592Z,19.60
2019-01-09T18:46:33.557Z,18.32
2019-01-09T18:49:01.210Z,19.10
2019-01-09T18:51:28.208Z,19.50
2019-01-09T18:53:55.141Z,27.77
2019-01-09T18:56:22.041Z,28.83
2019-01-09T18:58:49.384Z,25.02
2019-01-09T19:01:16.185Z,26.70
2019-01-09T19:03:43.265Z,25.25
2019-01-09T19:06:10.204Z,23.02
2019-01-09T19:08:37.185Z,30.92
2019-01-09T19:11:07.753Z,38.48
2019-01-09T19:13:32.625Z,73.17
2019-01-09T19:16:03.685Z,48.23
2019-01-09T19:18:27.985Z,52.30
2019-01-09T19:20:54.680Z,58.80
2019-01-09T19:23:21.538Z,124.30
2019-01-09T19:25:48.318Z,56.00
2019-01-09T19:28:15.178Z,42.20
2019-01-09T19:30:42.659Z,43.33
2019-01-09T19:33:09.512Z,37.65
2019-01-09T19:35:36.693Z,51.85
2019-01-09T19:38:09.752Z,39.10
2019-01-09T19:40:36.653Z,33.92
2019-01-09T19:43:03.692Z,44.45
2019-01-09T19:45:30.893Z,36.85
2019-01-09T19:47:57.972Z,42.40
2019-01-09T19:50:25.231Z,42.03
2019-01-09T19:52:51.992Z,61.95
2019-01-09T19:55:18.871Z,41.73
2019-01-09T19:57:45.810Z,31.65
2019-01-09T20:00:12.709Z,48.15
2019-01-09T20:02:39.562Z,34.23
2019-01-09T20:05:06.801Z,32.10
2019-01-09T20:07:33.503Z,31.12
2019-01-09T20:10:00.300Z,41.63
2019-01-09T20:12:27.342Z,47.20
2019-01-09T20:14:54.283Z,62.53
2019-01-09T20:17:21.266Z,65.42
2019-01-09T20:19:48.500Z,62.23
2019-01-09T20:22:15.302Z,43.10
2019-01-09T20:24:42.221Z,48.05
2019-01-09T20:27:09.042Z,44.90
2019-01-09T20:29:35.810Z,43.50
2019-01-09T20:32:02.566Z,45.83
2019-01-09T20:34:29.528Z,64.62
2019-01-09T20:36:56.264Z,58.45
2019-01-09T20:39:23.241Z,48.75
2019-01-09T20:41:49.993Z,29.82
2019-01-09T20:44:19.658Z,30.27
2019-01-09T20:46:46.633Z,28.10
2019-01-09T20:49:13.624Z,33.85
2019-01-09T20:51:40.440Z,32.75
2019-01-09T20:54:09.292Z,34.13
2019-01-09T20:56:35.870Z,27.13
2019-01-09T20:59:03.155Z,34.65
2019-01-09T21:01:30.262Z,29.57
2019-01-09T21:03:57.329Z,35.30
2019-01-09T21:06:24.184Z,41.98
2019-01-09T21:08:59.277Z,52.98
2019-01-09T21:11:19.504Z,50.30
2019-01-09T21:13:46.101Z,53.68
2019-01-09T21:16:12.984Z,59.60
2019-01-09T21:18:39.834Z,66.75
2019-01-09T21:21:06.787Z,58.92
2019-01-09T21:23:33.660Z,61.65
2019-01-09T21:26:00.433Z,60.65
2019-01-09T21:28:27.082Z,56.28
2019-01-09T21:30:53.843Z,49.38
2019-01-09T21:33:20.506Z,45.60
2019-01-09T21:35:47.287Z,41.85
2019-01-09T21:38:13.983Z,36.42
2019-01-09T21:40:40.619Z,36.55
2019-01-09T21:43:07.355Z,44.08
2019-01-09T21:45:34.123Z,37.08
2019-01-09T21:48:00.929Z,40.03
2019-01-09T21:50:27.704Z,48.70
2019-01-09T21:52:54.348Z,36.93
2019-01-09T21:55:21.078Z,46.05
2019-01-09T21:57:47.619Z,39.85
2019-01-09T22:00:14.326Z,35.75
2019-01-09T22:02:40.948Z,36.70
2019-01-09T22:05:07.768Z,36.93
2019-01-09T22:07:34.399Z,31.35
2019-01-09T22:10:01.217Z,21.35
2019-01-09T22:12:27.698Z,27.87
2019-01-09T22:14:54.353Z,27.13
2019-01-09T22:17:20.881Z,30.15
2019-01-09T22:19:47.517Z,23.12
2019-01-09T22:22:14.043Z,25.17
2019-01-09T22:24:40.751Z,36.03
2019-01-09T22:27:07.306Z,30.08
2019-01-09T22:29:33.868Z,28.92
2019-01-09T22:32:00.506Z,28.17
2019-01-09T22:34:27.027Z,33.18
2019-01-09T22:36:53.607Z,27.75
2019-01-09T22:39:20.157Z,38.60
2019-01-09T22:41:46.727Z,24.43
2019-01-09T22:44:13.272Z,30.32
2019-01-09T22:46:39.909Z,24.77
2019-01-09T22:49:06.439Z,26.57
2019-01-09T22:51:33.121Z,28.50
2019-01-09T22:53:59.697Z,23.55
2019-01-09T22:56:26.281Z,19.07
2019-01-09T22:58:52.774Z,20.23
2019-01-09T23:01:19.436Z,21.02
2019-01-09T23:03:45.917Z,29.00
2019-01-09T23:06:12.634Z,23.92
2019-01-09T23:08:39.381Z,20.30
2019-01-09T23:11:06.114Z,22.98
2019-01-09T23:13:32.590Z,18.70
2019-01-09T23:15:59.181Z,21.80
2019-01-09T23:18:25.700Z,22.05
2019-01-09T23:20:52.230Z,25.68
2019-01-09T23:23:18.763Z,22.67
2019-01-09T23:25:45.270Z,20.32
2019-01-09T23:28:11.789Z,25.08
2019-01-09T23:30:38.350Z,24.43
2019-01-09T23:33:04.892Z,42.67
2019-01-09T23:35:31.530Z,52.00
2019-01-09T23:37:58.112Z,84.47
2019-01-09T23:40:24.650Z,110.70
2019-01-09T23:42:51.162Z,80.60
2019-01-09T23:45:17.814Z,67.72
2019-01-09T23:47:44.321Z,62.45
2019-01-09T23:50:10.965Z,71.00
2019-01-09T23:52:37.659Z,65.60
2019-01-09T23:55:04.846Z,60.95
2019-01-09T23:57:31.378Z,60.17
2019-01-09T23:59:57.949Z,55.55
